createdAt,value
2019-02-20T00:01:01.363Z,57.74
2019-02-20T00:03:30.571Z,58.55
2019-02-20T00:06:00.032Z,57.66
2019-02-20T00:08:29.224Z,57.10
2019-02-20T00:10:58.476Z,56.98
2019-02-20T00:13:27.679Z,56.79
2019-02-20T00:15:56.930Z,56.56
2019-02-20T00:18:26.176Z,56.82
2019-02-20T00:20:55.468Z,56.80
2019-02-20T00:23:24.679Z,56.89
2019-02-20T00:25:54.232Z,57.11
2019-02-20T00:28:23.463Z,57.53
2019-02-20T00:30:56.310Z,58.00
2019-02-20T00:33:25.615Z,57.88
2019-02-20T00:35:54.891Z,57.94
2019-02-20T00:38:24.169Z,57.98
2019-02-20T00:40:53.407Z,57.95
2019-02-20T00:43:22.623Z,58.44
2019-02-20T00:46:20.746Z,58.31
2019-02-20T00:48:54.699Z,58.43
2019-02-20T00:51:48.214Z,58.09
2019-02-20T00:54:17.431Z,57.69
2019-02-20T00:56:46.752Z,57.51
2019-02-20T00:59:16.947Z,57.91
2019-02-20T01:01:46.412Z,58.23
2019-02-20T01:04:15.625Z,57.95
2019-02-20T01:06:45.394Z,57.55
2019-02-20T01:09:14.623Z,57.61
2019-02-20T01:11:43.831Z,57.52
2019-02-20T01:14:13.108Z,57.09
2019-02-20T01:16:42.364Z,56.63
2019-02-20T01:19:11.919Z,56.31
2019-02-20T01:21:41.145Z,55.92
2019-02-20T01:24:10.394Z,56.12
2019-02-20T01:26:39.602Z,56.37
2019-02-20T01:29:08.872Z,56.17
2019-02-20T01:31:38.088Z,56.28
2019-02-20T01:34:07.395Z,56.04
2019-02-20T01:36:37.699Z,55.97
2019-02-20T01:39:07.771Z,56.32
2019-02-20T01:41:37.269Z,55.87
2019-02-20T01:44:06.537Z,55.97
2019-02-20T01:46:37.018Z,56.06
2019-02-20T01:49:06.229Z,55.83
2019-02-20T01:51:35.441Z,55.95
2019-02-20T01:54:04.725Z,55.96
2019-02-20T01:56:34.009Z,55.91
2019-02-20T01:59:05.619Z,55.95
2019-02-20T02:01:34.919Z,56.03
2019-02-20T02:04:07.904Z,55.74
2019-02-20T02:06:37.245Z,56.12
2019-02-20T02:09:08.045Z,55.90
2019-02-20T02:11:37.253Z,55.94
2019-02-20T02:14:06.540Z,56.10
2019-02-20T02:16:35.748Z,55.91
2019-02-20T02:19:05.026Z,55.88
2019-02-20T02:21:34.283Z,56.07
2019-02-20T02:24:03.626Z,56.52
2019-02-20T02:26:32.874Z,56.25
2019-02-20T02:29:02.165Z,55.92
2019-02-20T02:31:31.689Z,55.83
2019-02-20T02:34:01.060Z,55.31
2019-02-20T02:36:30.306Z,55.49
2019-02-20T02:38:59.612Z,55.54
2019-02-20T02:55:52.654Z,55.98
2019-02-20T02:58:22.243Z,56.13
2019-02-20T03:00:51.505Z,56.35
2019-02-20T03:03:20.719Z,56.30
2019-02-20T03:05:50.014Z,55.88
2019-02-20T03:08:19.205Z,55.87
2019-02-20T03:10:48.473Z,56.09
2019-02-20T03:13:17.692Z,56.24
2019-02-20T03:15:46.969Z,56.17
2019-02-20T03:18:16.191Z,56.25
2019-02-20T03:20:45.447Z,56.42
2019-02-20T03:23:14.962Z,56.56
2019-02-20T03:25:44.228Z,56.40
2019-02-20T03:28:13.446Z,56.21
2019-02-20T03:30:51.753Z,56.18
2019-02-20T03:33:20.972Z,56.10
2019-02-20T03:35:50.261Z,56.54
2019-02-20T03:38:29.662Z,56.11
2019-02-20T03:40:50.467Z,56.24
2019-02-20T03:43:59.061Z,56.05
2019-02-20T03:46:28.364Z,55.50
2019-02-20T03:48:57.585Z,55.59
2019-02-20T03:51:26.879Z,55.65
2019-02-20T03:53:56.115Z,56.07
2019-02-20T03:56:45.793Z,55.49
2019-02-20T03:59:15.047Z,55.69
2019-02-20T04:01:44.312Z,55.71
2019-02-20T04:04:13.524Z,55.49
2019-02-20T04:06:42.777Z,55.71
2019-02-20T04:09:11.983Z,55.67
2019-02-20T04:11:41.268Z,56.22
2019-02-20T04:14:10.480Z,56.27
2019-02-20T04:16:39.766Z,56.00
2019-02-20T04:19:08.984Z,55.84
2019-02-20T04:21:38.262Z,55.42
2019-02-20T04:24:07.814Z,55.47
2019-02-20T04:34:38.692Z,55.84
2019-02-20T04:37:08.002Z,55.45
2019-02-20T04:39:37.209Z,55.70
2019-02-20T04:42:06.490Z,55.52
2019-02-20T04:44:35.690Z,55.73
2019-02-20T04:47:04.960Z,55.99
2019-02-20T04:49:34.188Z,56.96
2019-02-20T04:52:03.463Z,58.40
2019-02-20T04:54:32.689Z,58.69
2019-02-20T04:57:02.007Z,59.33
2019-02-20T04:59:31.239Z,59.40
2019-02-20T05:02:00.500Z,59.26
2019-02-20T05:04:30.002Z,59.35
2019-02-20T05:06:59.598Z,58.96
2019-02-20T05:09:28.897Z,59.17
2019-02-20T05:28:30.626Z,60.58
2019-02-20T05:31:00.139Z,59.44
2019-02-20T05:42:00.336Z,58.48
2019-02-20T05:44:30.575Z,58.98
2019-02-20T05:46:59.831Z,58.68
2019-02-20T05:49:29.066Z,58.43
2019-02-20T05:51:58.309Z,58.81
2019-02-20T05:54:34.067Z,58.35
2019-02-20T05:56:58.564Z,58.61
2019-02-20T05:59:27.778Z,58.33
2019-02-20T06:01:57.065Z,58.07
2019-02-20T06:07:33.641Z,58.00
2019-02-20T06:10:02.855Z,58.66
2019-02-20T06:12:32.136Z,58.68
2019-02-20T06:15:01.358Z,58.38
2019-02-20T06:17:30.602Z,57.81
2019-02-20T06:20:00.308Z,58.66
2019-02-20T06:22:29.604Z,59.58
2019-02-20T06:24:58.816Z,60.14
2019-02-20T06:30:51.121Z,61.02
2019-02-20T06:33:20.445Z,61.45
2019-02-20T06:35:49.676Z,61.85
2019-02-20T06:38:18.989Z,61.65
2019-02-20T06:40:48.214Z,62.19
2019-02-20T06:43:17.480Z,61.93
2019-02-20T06:45:46.692Z,62.31
2019-02-20T06:48:15.993Z,62.12
2019-02-20T06:50:45.233Z,62.17
2019-02-20T06:53:14.544Z,62.13
2019-02-20T06:55:44.016Z,61.72
2019-02-20T06:58:13.333Z,61.17
2019-02-20T07:00:42.962Z,61.34
2019-02-20T07:06:25.769Z,61.72
2019-02-20T07:12:44.746Z,61.86
2019-02-20T07:15:52.091Z,61.81
2019-02-20T07:19:00.828Z,61.78
2019-02-20T07:22:08.220Z,61.63
2019-02-20T07:25:16.859Z,61.54
2019-02-20T07:28:24.290Z,61.56
2019-02-20T07:30:53.567Z,61.72
2019-02-20T07:36:02.084Z,61.18
2019-02-20T07:38:32.841Z,61.18
2019-02-20T07:41:03.658Z,61.40
2019-02-20T07:43:32.876Z,61.23
2019-02-20T07:46:02.515Z,61.21
2019-02-20T07:48:31.782Z,61.00
2019-02-20T07:51:00.994Z,61.09
2019-02-20T07:53:30.283Z,61.14
2019-02-20T07:56:00.140Z,60.95
2019-02-20T07:58:29.612Z,61.04
2019-02-20T08:03:55.534Z,60.96
2019-02-20T08:06:25.131Z,60.91
2019-02-20T08:08:54.762Z,60.78
2019-02-20T08:11:24.239Z,60.75
2019-02-20T08:19:58.713Z,59.76
2019-02-20T08:22:27.969Z,59.73
2019-02-20T08:24:57.311Z,59.70
2019-02-20T08:27:26.674Z,59.23
2019-02-20T08:29:55.981Z,58.97
2019-02-20T08:32:25.247Z,58.76
2019-02-20T08:34:54.547Z,58.43
2019-02-20T08:37:23.851Z,58.25
2019-02-20T08:39:53.800Z,58.15
2019-02-20T08:42:23.071Z,57.92
2019-02-20T08:44:52.889Z,57.87
2019-02-20T08:47:22.190Z,57.38
2019-02-20T08:49:51.762Z,57.51
2019-02-20T08:52:21.333Z,57.23
2019-02-20T08:54:50.695Z,56.98
2019-02-20T09:02:58.166Z,55.85
2019-02-20T09:05:27.801Z,55.93
2019-02-20T09:07:57.050Z,55.87
2019-02-20T09:10:36.517Z,56.12
2019-02-20T09:18:44.128Z,55.53
2019-02-20T09:21:13.467Z,55.06
2019-02-20T09:23:43.219Z,54.95
2019-02-20T09:26:32.369Z,55.10
2019-02-20T09:29:01.656Z,55.00
2019-02-20T09:31:30.872Z,54.46
2019-02-20T09:34:00.121Z,54.11
2019-02-20T09:42:33.257Z,52.58
2019-02-20T09:45:02.577Z,52.27
2019-02-20T09:47:31.857Z,52.43
2019-02-20T09:50:01.525Z,52.73
2019-02-20T09:52:30.849Z,52.88
2019-02-20T09:55:00.290Z,52.95
2019-02-20T09:57:29.697Z,52.86
2019-02-20T10:00:18.286Z,52.82
2019-02-20T10:02:47.887Z,52.70
2019-02-20T10:05:17.632Z,52.42
2019-02-20T10:07:47.063Z,52.15
2019-02-20T10:10:16.483Z,52.18
2019-02-20T10:12:46.318Z,52.57
2019-02-20T10:15:15.923Z,52.79
2019-02-20T10:23:24.812Z,53.29
2019-02-20T10:26:00.902Z,53.54
2019-02-20T10:28:47.422Z,53.39
2019-02-20T10:31:17.293Z,54.14
2019-02-20T10:33:46.628Z,52.65
2019-02-20T10:36:16.832Z,52.92
2019-02-20T10:38:46.709Z,52.92
2019-02-20T10:41:16.181Z,53.63
2019-02-20T10:43:45.592Z,53.94
2019-02-20T10:46:15.084Z,53.90
2019-02-20T10:48:44.525Z,53.51
2019-02-20T10:51:15.179Z,53.02
2019-02-20T10:53:44.528Z,52.51
2019-02-20T10:56:15.928Z,52.14
2019-02-20T10:58:45.554Z,51.82
2019-02-20T11:04:19.984Z,51.44
2019-02-20T11:18:55.237Z,51.61
2019-02-20T11:21:25.032Z,51.70
2019-02-20T11:23:54.560Z,51.42
2019-02-20T11:26:23.951Z,51.57
2019-02-20T11:28:53.543Z,52.49
2019-02-20T11:31:22.849Z,51.34
2019-02-20T11:33:52.115Z,52.19
2019-02-20T11:36:21.399Z,52.33
2019-02-20T11:38:53.260Z,53.14
2019-02-20T11:44:21.260Z,52.87
2019-02-20T11:46:51.309Z,53.52
2019-02-20T11:49:24.674Z,53.45
2019-02-20T11:52:18.490Z,53.81
2019-02-20T11:57:45.673Z,53.62
2019-02-20T12:03:17.694Z,52.48
2019-02-20T12:06:10.560Z,51.86
2019-02-20T12:08:46.931Z,51.76
2019-02-20T12:11:24.141Z,52.35
2019-02-20T12:14:24.526Z,52.16
2019-02-20T12:19:33.666Z,52.14
2019-02-20T12:22:03.006Z,52.04
2019-02-20T12:24:32.947Z,51.72
2019-02-20T12:27:03.916Z,51.41
2019-02-20T12:29:33.219Z,51.74
2019-02-20T12:34:58.523Z,51.64
2019-02-20T12:37:29.152Z,51.55
2019-02-20T12:39:58.462Z,51.61
2019-02-20T12:42:28.616Z,51.49
2019-02-20T12:44:59.251Z,51.68
2019-02-20T12:47:28.528Z,51.83
2019-02-20T12:49:57.743Z,51.73
2019-02-20T12:52:26.956Z,52.53
2019-02-20T12:54:56.217Z,51.88
2019-02-20T12:57:25.571Z,52.37
2019-02-20T12:59:54.840Z,52.42
2019-02-20T13:02:24.054Z,51.92
2019-02-20T13:04:53.325Z,51.38
2019-02-20T13:07:22.613Z,50.88
2019-02-20T13:09:51.838Z,50.45
2019-02-20T13:12:21.396Z,49.84
2019-02-20T13:14:50.625Z,50.53
2019-02-20T13:17:19.898Z,50.37
2019-02-20T13:19:49.420Z,50.30
2019-02-20T13:22:18.715Z,49.71
2019-02-20T13:25:07.152Z,49.20
2019-02-20T13:27:36.429Z,48.72
2019-02-20T13:30:05.988Z,48.21
2019-02-20T13:32:35.248Z,48.12
2019-02-20T13:35:05.122Z,47.86
2019-02-20T13:37:34.756Z,47.63
2019-02-20T13:40:04.297Z,47.48
2019-02-20T13:42:33.935Z,47.43
2019-02-20T13:51:08.457Z,47.30
2019-02-20T13:53:46.085Z,47.56
2019-02-20T13:56:08.918Z,47.86
2019-02-20T13:58:38.266Z,47.69
2019-02-20T14:01:07.486Z,47.28
2019-02-20T14:03:36.772Z,46.96
2019-02-20T14:06:05.975Z,45.92
2019-02-20T14:08:35.578Z,45.95
2019-02-20T14:11:04.849Z,45.58
2019-02-20T14:13:34.070Z,45.10
2019-02-20T14:16:03.340Z,45.06
2019-02-20T14:18:32.589Z,44.55
2019-02-20T14:21:01.872Z,44.18
2019-02-20T14:23:31.373Z,43.96
2019-02-20T14:26:00.939Z,43.45
2019-02-20T14:28:30.240Z,44.81
2019-02-20T14:30:59.755Z,44.82
2019-02-20T14:33:28.944Z,45.15
2019-02-20T14:35:58.220Z,45.87
2019-02-20T14:38:27.438Z,46.33
2019-02-20T14:40:56.740Z,46.55
2019-02-20T14:43:26.224Z,46.17
2019-02-20T14:45:55.655Z,46.20
2019-02-20T14:48:24.959Z,44.92
2019-02-20T14:50:54.241Z,44.31
2019-02-20T14:53:23.507Z,43.49
2019-02-20T14:55:52.817Z,43.12
2019-02-20T14:58:22.606Z,44.01
2019-02-20T15:00:51.933Z,44.51
2019-02-20T15:03:21.192Z,44.00
2019-02-20T15:05:50.440Z,43.44
2019-02-20T15:08:19.771Z,43.34
2019-02-20T15:10:50.762Z,43.49
2019-02-20T15:13:20.353Z,44.10
2019-02-20T15:15:50.048Z,44.74
2019-02-20T15:18:19.964Z,44.70
2019-02-20T15:20:49.183Z,44.64
2019-02-20T15:23:18.473Z,44.77
2019-02-20T15:25:48.406Z,45.14
2019-02-20T15:28:17.970Z,45.25
2019-02-20T15:30:47.205Z,44.89
2019-02-20T15:33:16.490Z,44.88
2019-02-20T15:35:45.715Z,45.19
2019-02-20T15:38:15.012Z,45.21
2019-02-20T15:40:45.003Z,45.32
2019-02-20T15:43:14.838Z,45.61
2019-02-20T15:45:44.456Z,45.76
2019-02-20T15:48:13.869Z,45.79
2019-02-20T15:50:43.157Z,45.79
2019-02-20T15:53:12.459Z,45.89
2019-02-20T15:55:41.685Z,45.80
2019-02-20T15:58:11.036Z,45.76
2019-02-20T16:00:41.467Z,46.11
2019-02-20T16:03:11.566Z,46.58
2019-02-20T16:05:41.287Z,47.09
2019-02-20T16:08:10.603Z,47.48
2019-02-20T16:10:39.813Z,47.95
2019-02-20T16:13:09.035Z,47.70
2019-02-20T16:15:38.710Z,48.20
2019-02-20T16:18:09.112Z,48.59
2019-02-20T16:20:38.705Z,48.93
2019-02-20T16:23:08.162Z,48.92
2019-02-20T16:25:37.929Z,49.28
2019-02-20T16:28:07.152Z,49.58
2019-02-20T16:30:38.199Z,49.56
2019-02-20T16:33:07.454Z,49.36
2019-02-20T16:35:37.008Z,49.49
2019-02-20T16:38:06.280Z,49.74
2019-02-20T16:40:35.572Z,49.99
2019-02-20T16:43:04.895Z,50.92
2019-02-20T16:45:36.564Z,50.82
2019-02-20T16:48:06.238Z,50.93
2019-02-20T16:50:35.478Z,52.81
2019-02-20T16:55:39.213Z,51.15
2019-02-20T16:58:08.630Z,51.20
2019-02-20T17:00:38.012Z,51.21
2019-02-20T17:03:07.289Z,51.12
2019-02-20T17:05:36.511Z,51.09
2019-02-20T17:08:45.156Z,51.02
2019-02-20T17:11:14.710Z,51.20
2019-02-20T17:13:44.016Z,51.11
2019-02-20T17:16:13.229Z,51.19
2019-02-20T17:18:42.499Z,50.96
2019-02-20T17:21:11.740Z,50.94
2019-02-20T17:23:41.444Z,51.34
2019-02-20T17:26:50.039Z,51.38
2019-02-20T17:29:19.581Z,51.51
2019-02-20T17:32:28.263Z,51.74
2019-02-20T17:34:57.482Z,51.62
2019-02-20T17:37:29.107Z,51.62
2019-02-20T17:39:58.386Z,52.89
2019-02-20T17:42:27.617Z,52.32
2019-02-20T17:44:56.907Z,52.12
2019-02-20T17:47:26.130Z,52.17
2019-02-20T17:49:55.555Z,51.78
2019-02-20T17:52:24.975Z,51.71
2019-02-20T17:54:54.263Z,51.65
2019-02-20T17:57:23.536Z,51.66
2019-02-20T17:59:52.809Z,51.80
2019-02-20T18:02:22.113Z,52.05
2019-02-20T18:04:51.451Z,52.05
2019-02-20T18:07:20.672Z,52.01
2019-02-20T18:09:49.991Z,52.11
2019-02-20T18:12:19.207Z,52.34
2019-02-20T18:14:48.581Z,52.35
2019-02-20T18:17:17.899Z,52.13
2019-02-20T18:19:47.478Z,52.19
2019-02-20T18:22:16.713Z,52.26
2019-02-20T18:24:46.352Z,52.36
2019-02-20T18:27:15.586Z,52.49
2019-02-20T18:29:44.873Z,52.29
2019-02-20T18:32:14.085Z,51.98
2019-02-20T18:34:43.379Z,51.92
2019-02-20T18:37:12.617Z,51.93
2019-02-20T18:39:42.193Z,52.34
2019-02-20T18:42:11.414Z,52.41
2019-02-20T18:44:40.740Z,52.76
2019-02-20T18:47:09.947Z,52.44
2019-02-20T18:49:39.362Z,53.01
2019-02-20T18:52:08.658Z,53.93
2019-02-20T18:54:37.960Z,53.88
2019-02-20T18:57:07.470Z,53.42
2019-02-20T18:59:36.862Z,53.29
2019-02-20T19:02:06.113Z,53.05
2019-02-20T19:04:35.439Z,53.10
2019-02-20T19:07:11.211Z,54.17
2019-02-20T19:09:41.213Z,53.87
2019-02-20T19:12:32.940Z,53.57
2019-02-20T19:15:40.791Z,54.23
2019-02-20T19:18:48.165Z,54.66
2019-02-20T19:21:39.759Z,54.14
2019-02-20T19:24:47.085Z,54.05
2019-02-20T19:27:54.423Z,53.68
2019-02-20T19:30:48.702Z,53.93
2019-02-20T19:33:55.981Z,53.87
2019-02-20T19:37:03.515Z,53.87
2019-02-20T19:39:39.547Z,54.03
2019-02-20T19:42:46.914Z,54.02
2019-02-20T19:45:39.594Z,54.03
2019-02-20T19:48:46.966Z,54.05
2019-02-20T19:51:54.281Z,54.07
2019-02-20T19:54:35.249Z,54.47
2019-02-20T19:57:28.522Z,55.29
2019-02-20T20:00:35.955Z,55.83
2019-02-20T20:03:43.299Z,56.52
2019-02-20T20:06:50.770Z,57.45
2019-02-20T20:09:42.795Z,57.98
2019-02-20T20:12:43.251Z,58.54
2019-02-20T20:15:50.652Z,58.56
2019-02-20T20:18:44.059Z,58.40
2019-02-20T20:21:38.883Z,58.51
2019-02-20T20:24:46.222Z,58.12
2019-02-20T20:27:53.477Z,58.02
2019-02-20T20:31:01.869Z,57.39
2019-02-20T20:34:09.252Z,57.17
2019-02-20T20:37:16.554Z,57.01
2019-02-20T20:40:13.151Z,56.37
2019-02-20T20:43:08.118Z,56.43
2019-02-20T20:46:15.471Z,55.89
2019-02-20T20:49:22.734Z,55.78
2019-02-20T20:52:24.951Z,55.80
2019-02-20T20:55:32.254Z,55.86
2019-02-20T20:58:39.880Z,55.79
2019-02-20T21:01:47.207Z,55.38
2019-02-20T21:04:54.761Z,55.60
2019-02-20T21:08:02.214Z,56.34
2019-02-20T21:11:04.332Z,56.97
2019-02-20T21:14:11.659Z,56.69
2019-02-20T21:17:18.926Z,57.32
2019-02-20T21:20:13.932Z,57.50
2019-02-20T21:23:21.199Z,57.93
2019-02-20T21:26:28.537Z,58.25
2019-02-20T21:29:28.114Z,58.51
2019-02-20T21:32:28.723Z,58.69
2019-02-20T21:35:19.327Z,59.10
2019-02-20T21:38:27.042Z,59.47
2019-02-20T21:41:18.376Z,59.48
2019-02-20T21:44:19.629Z,59.43
2019-02-20T21:47:12.039Z,59.91
2019-02-20T21:50:19.303Z,59.97
2019-02-20T21:53:26.899Z,59.74
2019-02-20T21:56:34.158Z,59.53
2019-02-20T21:59:41.557Z,59.38
2019-02-20T22:02:48.885Z,58.78
2019-02-20T22:05:40.985Z,58.38
2019-02-20T22:08:48.303Z,58.90
2019-02-20T22:11:55.565Z,59.47
2019-02-20T22:15:02.888Z,59.57
2019-02-20T22:17:48.373Z,59.77
2019-02-20T22:20:55.699Z,60.01
2019-02-20T22:23:46.689Z,59.56
2019-02-20T22:26:54.003Z,59.30
2019-02-20T22:29:58.051Z,59.58
2019-02-20T22:33:05.378Z,59.80
2019-02-20T22:36:12.644Z,59.87
2019-02-20T22:42:26.809Z,59.90
2019-02-20T22:45:34.397Z,60.29
2019-02-20T22:48:29.034Z,60.54
2019-02-20T22:51:37.322Z,60.40
2019-02-20T22:54:35.051Z,59.68
2019-02-20T22:57:15.781Z,59.88
2019-02-20T23:00:34.304Z,59.95
2019-02-20T23:03:34.083Z,60.00
2019-02-20T23:06:31.765Z,60.35
2019-02-20T23:09:39.311Z,60.26
2019-02-20T23:12:33.531Z,59.94
2019-02-20T23:15:02.715Z,59.90
2019-02-20T23:20:34.186Z,60.14
2019-02-20T23:23:03.522Z,60.32
2019-02-20T23:25:32.772Z,60.35
2019-02-20T23:28:02.081Z,60.58
2019-02-20T23:30:31.393Z,60.34
2019-02-20T23:33:00.847Z,60.55
2019-02-20T23:35:30.031Z,60.79
2019-02-20T23:37:59.248Z,60.76
2019-02-20T23:40:28.593Z,60.70
2019-02-20T23:42:57.825Z,60.32
2019-02-20T23:45:27.108Z,60.40
2019-02-20T23:47:56.620Z,60.46
2019-02-20T23:50:25.892Z,60.83
2019-02-20T23:52:55.472Z,60.90
2019-02-20T23:55:24.820Z,60.85
2019-02-20T23:57:54.082Z,60.93
